createdAt,value
2018-05-23T00:00:51.066Z,20.31
2018-05-23T00:03:19.492Z,19.67
2018-05-23T00:05:47.979Z,19.79
2018-05-23T00:08:16.494Z,19.99
2018-05-23T00:10:44.856Z,19.87
2018-05-23T00:13:13.200Z,19.97
2018-05-23T00:15:41.684Z,19.82
2018-05-23T00:18:10.037Z,19.91
2018-05-23T00:20:38.474Z,20.13
2018-05-23T00:23:06.855Z,19.82
2018-05-23T00:25:35.259Z,19.71
2018-05-23T00:28:03.630Z,20.11
2018-05-23T00:30:31.992Z,19.95
2018-05-23T00:33:00.413Z,20.28
2018-05-23T00:35:28.797Z,20.49
2018-05-23T00:37:57.165Z,20.55
2018-05-23T00:40:25.509Z,19.85
2018-05-23T00:42:53.993Z,20.03
2018-05-23T00:45:22.370Z,19.92
2018-05-23T00:47:50.785Z,20.04
2018-05-23T00:50:19.284Z,19.61
2018-05-23T00:52:47.597Z,19.84
2018-05-23T00:55:27.745Z,20.39
2018-05-23T00:57:56.185Z,20.29
2018-05-23T01:00:24.568Z,19.80
2018-05-23T01:02:52.971Z,20.10
2018-05-23T01:05:21.430Z,20.01
2018-05-23T01:07:49.888Z,20.16
2018-05-23T01:10:18.248Z,20.46
2018-05-23T01:12:46.618Z,20.23
2018-05-23T01:15:14.989Z,20.33
2018-05-23T01:17:43.459Z,20.47
2018-05-23T01:20:11.820Z,20.26
2018-05-23T01:22:40.208Z,19.88
2018-05-23T01:25:08.730Z,20.10
2018-05-23T01:27:37.124Z,20.20
2018-05-23T01:30:05.544Z,20.16
2018-05-23T01:32:33.964Z,20.27
2018-05-23T01:35:02.388Z,19.86
2018-05-23T01:37:30.863Z,20.16
2018-05-23T01:39:59.274Z,20.07
2018-05-23T01:42:27.682Z,19.98
2018-05-23T01:44:56.105Z,20.41
2018-05-23T01:47:24.477Z,20.45
2018-05-23T01:49:52.880Z,20.29
2018-05-23T01:52:21.275Z,20.41
2018-05-23T01:54:49.673Z,20.39
2018-05-23T01:57:18.096Z,20.37
2018-05-23T01:59:46.529Z,20.17
2018-05-23T02:02:15.029Z,20.22
2018-05-23T02:04:43.443Z,19.91
2018-05-23T02:07:11.805Z,20.15
2018-05-23T02:09:40.172Z,20.29
2018-05-23T02:12:08.569Z,20.12
2018-05-23T02:14:37.073Z,20.25
2018-05-23T02:17:05.491Z,20.32
2018-05-23T02:19:33.847Z,20.26
2018-05-23T02:22:02.269Z,20.45
2018-05-23T02:24:30.652Z,20.60
2018-05-23T02:26:59.076Z,20.38
2018-05-23T02:29:27.438Z,20.45
2018-05-23T02:31:55.813Z,20.35
2018-05-23T02:34:24.282Z,19.97
2018-05-23T02:36:52.659Z,20.25
2018-05-23T02:39:21.174Z,19.83
2018-05-23T02:41:49.538Z,20.08
2018-05-23T02:44:17.945Z,19.86
2018-05-23T02:46:46.320Z,19.77
2018-05-23T02:49:14.695Z,19.92
2018-05-23T02:51:43.056Z,20.14
2018-05-23T02:54:11.481Z,20.22
2018-05-23T02:56:39.863Z,19.78
2018-05-23T02:59:08.270Z,19.81
2018-05-23T03:01:36.648Z,19.85
2018-05-23T03:04:05.028Z,19.79
2018-05-23T03:06:33.397Z,19.69
2018-05-23T03:09:01.760Z,20.18
2018-05-23T03:11:30.114Z,19.82
2018-05-23T03:13:58.475Z,19.98
2018-05-23T03:16:26.859Z,20.10
2018-05-23T03:18:55.207Z,19.89
2018-05-23T03:21:23.665Z,19.66
2018-05-23T03:23:52.023Z,19.48
2018-05-23T03:26:20.564Z,19.64
2018-05-23T03:28:48.993Z,19.49
2018-05-23T03:31:17.368Z,20.01
2018-05-23T03:33:45.746Z,19.76
2018-05-23T03:36:14.133Z,19.72
2018-05-23T03:38:42.574Z,19.98
2018-05-23T03:41:11.057Z,19.56
2018-05-23T03:43:39.445Z,20.41
2018-05-23T03:46:07.857Z,19.87
2018-05-23T03:48:36.253Z,20.02
2018-05-23T03:51:04.652Z,20.14
2018-05-23T03:53:33.008Z,20.17
2018-05-23T03:56:01.438Z,19.99
2018-05-23T03:58:29.918Z,20.23
2018-05-23T04:01:10.009Z,20.09
2018-05-23T04:03:51.119Z,19.82
2018-05-23T04:09:21.348Z,20.32
2018-05-23T04:11:49.789Z,19.86
2018-05-23T04:14:18.312Z,19.78
2018-05-23T04:16:46.719Z,20.44
2018-05-23T04:19:15.183Z,20.40
2018-05-23T04:21:43.636Z,19.92
2018-05-23T04:24:11.979Z,19.74
2018-05-23T04:26:40.490Z,20.10
2018-05-23T04:29:08.966Z,20.33
2018-05-23T04:31:37.383Z,20.20
2018-05-23T04:34:05.752Z,19.84
2018-05-23T04:36:34.141Z,20.41
2018-05-23T04:39:02.676Z,19.97
2018-05-23T04:41:31.169Z,20.20
2018-05-23T04:43:59.552Z,20.31
2018-05-23T04:46:28.016Z,20.46
2018-05-23T04:48:56.489Z,20.35
2018-05-23T04:51:24.905Z,20.78
2018-05-23T04:53:53.251Z,20.22
2018-05-23T04:56:21.791Z,20.75
2018-05-23T04:58:50.293Z,20.53
2018-05-23T05:01:18.856Z,20.50
2018-05-23T05:03:47.339Z,20.49
2018-05-23T05:06:15.747Z,20.80
2018-05-23T05:08:44.148Z,20.55
2018-05-23T05:11:12.614Z,20.53
2018-05-23T05:13:41.045Z,20.39
2018-05-23T05:16:09.450Z,20.29
2018-05-23T05:18:37.926Z,20.96
2018-05-23T05:21:06.340Z,20.73
2018-05-23T05:23:34.767Z,20.60
2018-05-23T05:26:03.480Z,20.50
2018-05-23T05:28:31.882Z,20.69
2018-05-23T05:31:00.356Z,20.77
2018-05-23T05:33:28.858Z,20.85
2018-05-23T05:35:57.286Z,20.87
2018-05-23T05:38:25.668Z,20.96
2018-05-23T05:40:54.190Z,20.47
2018-05-23T05:43:22.892Z,20.19
2018-05-23T05:45:51.262Z,19.95
2018-05-23T05:48:19.671Z,20.64
2018-05-23T05:50:48.085Z,21.18
2018-05-23T05:53:17.447Z,21.13
2018-05-23T05:55:45.810Z,21.24
2018-05-23T05:58:14.241Z,20.84
2018-05-23T06:00:42.724Z,20.66
2018-05-23T06:03:11.431Z,20.76
2018-05-23T06:05:39.942Z,20.90
2018-05-23T06:08:08.318Z,20.72
2018-05-23T06:10:36.843Z,21.50
2018-05-23T06:13:05.280Z,21.14
2018-05-23T06:15:34.688Z,21.36
2018-05-23T06:18:03.127Z,21.53
2018-05-23T06:20:31.634Z,21.38
2018-05-23T06:23:01.166Z,21.56
2018-05-23T06:25:29.595Z,21.65
2018-05-23T06:27:58.114Z,21.42
2018-05-23T06:30:26.759Z,20.97
2018-05-23T06:32:55.077Z,21.28
2018-05-23T06:35:23.629Z,20.92
2018-05-23T06:37:52.301Z,20.83
2018-05-23T06:40:20.838Z,21.52
2018-05-23T06:42:49.200Z,21.37
2018-05-23T06:45:17.586Z,21.47
2018-05-23T06:47:46.010Z,21.54
2018-05-23T06:50:14.415Z,21.71
2018-05-23T06:52:42.801Z,21.58
2018-05-23T06:55:11.203Z,21.15
2018-05-23T06:57:39.705Z,21.72
2018-05-23T07:00:08.147Z,21.35
2018-05-23T07:02:36.598Z,22.01
2018-05-23T07:05:05.022Z,21.71
2018-05-23T07:07:33.389Z,21.92
2018-05-23T07:10:01.844Z,22.02
2018-05-23T07:12:30.235Z,22.30
2018-05-23T07:14:58.657Z,22.01
2018-05-23T07:17:27.099Z,22.15
2018-05-23T07:19:55.494Z,21.91
2018-05-23T07:22:24.035Z,22.08
2018-05-23T07:24:52.463Z,22.34
2018-05-23T07:27:20.866Z,21.50
2018-05-23T07:29:49.270Z,21.41
2018-05-23T07:32:17.779Z,22.49
2018-05-23T07:34:46.246Z,21.98
2018-05-23T07:37:14.747Z,22.63
2018-05-23T07:39:43.178Z,22.86
2018-05-23T07:42:11.639Z,22.62
2018-05-23T07:44:40.143Z,22.32
2018-05-23T07:47:08.637Z,22.31
2018-05-23T07:49:37.226Z,22.79
2018-05-23T07:52:06.665Z,23.04
2018-05-23T07:54:35.169Z,22.93
2018-05-23T07:57:03.711Z,23.00
2018-05-23T07:59:32.351Z,22.99
2018-05-23T08:02:00.785Z,23.24
2018-05-23T08:04:29.271Z,22.46
2018-05-23T08:06:57.822Z,22.55
2018-05-23T08:09:26.294Z,22.69
2018-05-23T08:11:54.930Z,22.24
2018-05-23T08:14:23.350Z,22.39
2018-05-23T08:16:51.755Z,22.72
2018-05-23T08:19:20.198Z,22.47
2018-05-23T08:21:48.567Z,22.48
2018-05-23T08:24:17.183Z,22.51
2018-05-23T08:26:45.599Z,23.12
2018-05-23T08:29:14.133Z,23.03
2018-05-23T08:31:42.789Z,23.03
2018-05-23T08:34:11.181Z,22.52
2018-05-23T08:36:39.656Z,22.27
2018-05-23T08:39:08.152Z,22.15
2018-05-23T08:41:36.534Z,22.39
2018-05-23T08:44:04.953Z,22.59
2018-05-23T08:46:33.537Z,22.35
2018-05-23T08:49:01.966Z,22.55
2018-05-23T08:51:30.536Z,22.51
2018-05-23T08:53:59.055Z,22.75
2018-05-23T08:56:27.503Z,22.77
2018-05-23T08:58:55.988Z,22.69
2018-05-23T09:01:24.486Z,22.94
2018-05-23T09:03:54.213Z,23.47
2018-05-23T09:06:22.819Z,23.01
2018-05-23T09:08:51.208Z,23.50
2018-05-23T09:11:19.606Z,23.79
2018-05-23T09:13:48.201Z,23.71
2018-05-23T09:16:16.573Z,23.19
2018-05-23T09:18:44.986Z,23.34
2018-05-23T09:21:13.449Z,23.44
2018-05-23T09:23:42.042Z,23.45
2018-05-23T09:26:12.483Z,23.91
2018-05-23T09:28:40.988Z,23.91
2018-05-23T09:31:09.522Z,23.78
2018-05-23T09:33:38.084Z,23.58
2018-05-23T09:36:06.681Z,24.43
2018-05-23T09:38:35.318Z,24.31
2018-05-23T09:41:03.903Z,24.22
2018-05-23T09:43:32.431Z,24.66
2018-05-23T09:46:00.895Z,24.41
2018-05-23T09:48:29.413Z,23.95
2018-05-23T09:50:57.906Z,24.39
2018-05-23T09:53:26.340Z,24.83
2018-05-23T09:55:54.925Z,25.09
2018-05-23T09:58:23.374Z,26.56
2018-05-23T10:00:51.872Z,27.08
2018-05-23T10:03:20.400Z,27.38
2018-05-23T10:05:49.038Z,27.22
2018-05-23T10:08:18.655Z,27.66
2018-05-23T10:10:47.274Z,26.72
2018-05-23T10:13:16.063Z,26.95
2018-05-23T10:15:44.619Z,27.11
2018-05-23T10:18:13.262Z,27.68
2018-05-23T10:20:41.803Z,28.33
2018-05-23T10:23:10.476Z,28.08
2018-05-23T10:25:39.046Z,27.47
2018-05-23T10:28:07.839Z,28.09
2018-05-23T10:30:36.393Z,27.84
2018-05-23T10:33:04.958Z,27.87
2018-05-23T10:35:33.391Z,27.63
2018-05-23T10:38:02.897Z,28.00
2018-05-23T10:40:31.524Z,28.76
2018-05-23T10:43:00.007Z,28.40
2018-05-23T10:45:28.613Z,28.24
2018-05-23T10:47:57.200Z,28.12
2018-05-23T10:50:25.662Z,28.19
2018-05-23T10:52:54.070Z,28.53
2018-05-23T10:55:22.709Z,28.18
2018-05-23T10:57:51.249Z,25.95
2018-05-23T11:00:19.800Z,26.86
2018-05-23T11:02:49.121Z,27.59
2018-05-23T11:05:17.808Z,26.89
2018-05-23T11:07:46.246Z,28.04
2018-05-23T11:10:14.730Z,27.37
2018-05-23T11:12:43.233Z,27.68
2018-05-23T11:15:11.988Z,29.06
2018-05-23T11:17:40.451Z,29.15
2018-05-23T11:20:09.405Z,30.31
2018-05-23T11:22:37.913Z,30.45
2018-05-23T11:25:06.320Z,30.89
2018-05-23T11:27:34.787Z,31.71
2018-05-23T11:30:03.236Z,31.27
2018-05-23T11:32:32.275Z,29.89
2018-05-23T11:35:00.887Z,30.33
2018-05-23T11:37:29.637Z,30.89
2018-05-23T11:39:58.089Z,30.55
2018-05-23T11:42:26.573Z,30.18
2018-05-23T11:44:55.014Z,30.26
2018-05-23T11:47:23.625Z,30.14
2018-05-23T11:49:52.061Z,30.12
2018-05-23T11:52:33.442Z,29.94
2018-05-23T11:55:02.804Z,28.24
2018-05-23T11:57:31.307Z,29.46
2018-05-23T11:59:59.951Z,28.51
2018-05-23T12:02:28.643Z,29.83
2018-05-23T12:04:57.160Z,29.57
2018-05-23T12:07:25.838Z,30.19
2018-05-23T12:09:54.414Z,29.28
2018-05-23T12:12:23.253Z,29.98
2018-05-23T12:14:51.734Z,30.49
2018-05-23T12:17:20.217Z,29.40
2018-05-23T12:19:48.703Z,28.98
2018-05-23T12:22:17.319Z,28.41
2018-05-23T12:24:45.863Z,29.54
2018-05-23T12:27:14.598Z,28.89
2018-05-23T12:29:43.474Z,28.66
2018-05-23T12:32:12.013Z,28.61
2018-05-23T12:34:40.639Z,29.97
2018-05-23T12:37:10.550Z,29.64
2018-05-23T12:39:39.981Z,29.08
2018-05-23T12:42:08.656Z,30.37
2018-05-23T12:44:38.123Z,29.96
2018-05-23T12:47:06.586Z,29.55
2018-05-23T12:49:35.156Z,30.36
2018-05-23T12:52:03.651Z,29.66
2018-05-23T12:54:32.196Z,29.99
2018-05-23T12:57:00.667Z,29.45
2018-05-23T12:59:29.156Z,30.42
2018-05-23T13:01:57.555Z,30.38
2018-05-23T13:04:26.200Z,30.90
2018-05-23T13:06:55.123Z,29.50
2018-05-23T13:09:23.743Z,29.77
2018-05-23T13:11:53.013Z,30.05
2018-05-23T13:14:22.011Z,29.66
2018-05-23T13:16:50.559Z,28.83
2018-05-23T13:19:19.109Z,29.85
2018-05-23T13:21:47.643Z,29.92
2018-05-23T13:24:16.090Z,30.30
2018-05-23T13:26:44.566Z,30.62
2018-05-23T13:29:13.009Z,29.76
2018-05-23T13:31:41.652Z,30.21
2018-05-23T13:34:10.083Z,30.11
2018-05-23T13:36:38.528Z,29.61
2018-05-23T13:39:07.030Z,29.38
2018-05-23T13:41:35.495Z,30.09
2018-05-23T13:44:04.090Z,29.82
2018-05-23T13:46:32.521Z,30.15
2018-05-23T13:49:01.025Z,30.04
2018-05-23T13:51:29.457Z,29.78
2018-05-23T13:53:58.047Z,29.44
2018-05-23T13:56:26.569Z,29.30
2018-05-23T13:58:54.985Z,30.29
2018-05-23T14:01:23.496Z,29.63
2018-05-23T14:03:51.965Z,30.12
2018-05-23T14:06:20.424Z,30.61
2018-05-23T14:08:49.145Z,30.92
2018-05-23T14:11:17.691Z,30.52
2018-05-23T14:13:46.659Z,30.45
2018-05-23T14:16:15.345Z,30.68
2018-05-23T14:18:44.548Z,30.96
2018-05-23T14:21:13.352Z,30.51
2018-05-23T14:23:41.758Z,30.74
2018-05-23T14:26:10.425Z,30.36
2018-05-23T14:28:38.842Z,28.88
2018-05-23T14:31:07.389Z,30.02
2018-05-23T14:33:36.353Z,29.51
2018-05-23T14:36:05.334Z,28.82
2018-05-23T14:38:33.975Z,29.57
2018-05-23T14:41:03.595Z,30.06
2018-05-23T14:43:32.610Z,29.45
2018-05-23T14:46:01.332Z,30.41
2018-05-23T14:48:30.005Z,30.33
2018-05-23T14:50:58.538Z,29.61
2018-05-23T14:53:27.051Z,30.66
2018-05-23T14:55:56.658Z,30.02
2018-05-23T14:58:25.488Z,29.21
2018-05-23T15:00:54.103Z,29.06
2018-05-23T15:03:22.676Z,30.02
2018-05-23T15:05:51.450Z,29.26
2018-05-23T15:08:20.331Z,29.01
2018-05-23T15:10:49.040Z,29.69
2018-05-23T15:13:17.599Z,29.70
2018-05-23T15:15:46.507Z,29.89
2018-05-23T15:18:15.271Z,30.32
2018-05-23T15:20:44.323Z,30.09
2018-05-23T15:23:12.830Z,30.15
2018-05-23T15:25:41.433Z,29.98
2018-05-23T15:28:10.077Z,29.31
2018-05-23T15:30:38.818Z,29.38
2018-05-23T15:33:07.863Z,29.25
2018-05-23T15:35:36.571Z,29.65
2018-05-23T15:38:05.874Z,30.02
2018-05-23T15:40:34.705Z,30.25
2018-05-23T15:43:03.465Z,29.88
2018-05-23T15:45:32.427Z,29.41
2018-05-23T15:48:00.908Z,29.48
2018-05-23T15:50:29.549Z,29.33
2018-05-23T15:52:58.161Z,29.34
2018-05-23T15:55:27.336Z,29.16
2018-05-23T15:57:55.995Z,27.97
2018-05-23T16:00:24.471Z,28.05
2018-05-23T16:02:53.056Z,29.44
2018-05-23T16:05:21.385Z,29.60
2018-05-23T16:07:49.933Z,28.46
2018-05-23T16:10:18.430Z,28.97
2018-05-23T16:12:46.878Z,28.49
2018-05-23T16:15:15.328Z,29.62
2018-05-23T16:17:43.773Z,28.09
2018-05-23T16:20:12.338Z,29.33
2018-05-23T16:22:40.930Z,28.66
2018-05-23T16:25:09.311Z,28.88
2018-05-23T16:27:37.818Z,28.01
2018-05-23T16:30:06.169Z,28.35
2018-05-23T16:32:34.734Z,29.36
2018-05-23T16:35:03.298Z,28.71
2018-05-23T16:37:31.801Z,29.27
2018-05-23T16:40:00.317Z,28.80
2018-05-23T16:42:29.169Z,28.11
2018-05-23T16:44:58.804Z,28.95
2018-05-23T16:47:27.207Z,27.77
2018-05-23T16:49:55.593Z,28.32
2018-05-23T16:52:24.022Z,27.78
2018-05-23T16:54:52.478Z,28.67
2018-05-23T16:57:21.078Z,28.86
2018-05-23T16:59:49.560Z,28.72
2018-05-23T17:02:18.123Z,28.81
2018-05-23T17:04:46.617Z,28.05
2018-05-23T17:07:15.064Z,28.59
2018-05-23T17:09:43.540Z,28.86
2018-05-23T17:12:12.136Z,28.33
2018-05-23T17:14:41.395Z,29.50
2018-05-23T17:17:10.098Z,28.49
2018-05-23T17:19:38.566Z,27.75
2018-05-23T17:22:07.178Z,27.23
2018-05-23T17:24:35.776Z,28.20
2018-05-23T17:27:04.272Z,28.75
2018-05-23T17:29:33.361Z,27.47
2018-05-23T17:32:02.052Z,28.57
2018-05-23T17:34:30.500Z,29.10
2018-05-23T17:36:58.958Z,28.90
2018-05-23T17:39:27.484Z,27.84
2018-05-23T17:41:56.807Z,28.45
2018-05-23T17:44:25.551Z,28.57
2018-05-23T17:46:53.963Z,28.26
2018-05-23T17:49:22.458Z,28.27
2018-05-23T17:51:50.933Z,28.24
2018-05-23T17:54:19.581Z,27.48
2018-05-23T17:56:48.076Z,27.18
2018-05-23T17:59:17.390Z,26.92
2018-05-23T18:01:45.850Z,26.91
2018-05-23T18:04:15.268Z,27.42
2018-05-23T18:06:43.990Z,27.58
2018-05-23T18:09:12.565Z,26.64
2018-05-23T18:11:41.328Z,26.61
2018-05-23T18:14:09.750Z,27.31
2018-05-23T18:16:38.314Z,27.50
2018-05-23T18:19:07.120Z,27.14
2018-05-23T18:21:35.693Z,27.28
2018-05-23T18:24:04.630Z,27.21
2018-05-23T18:26:33.178Z,26.73
2018-05-23T18:29:01.667Z,26.53
2018-05-23T18:31:30.325Z,26.75
2018-05-23T18:33:59.340Z,26.00
2018-05-23T18:36:27.999Z,26.32
2018-05-23T18:38:56.656Z,26.36
2018-05-23T18:41:25.393Z,25.90
2018-05-23T18:43:55.218Z,26.33
2018-05-23T18:46:24.422Z,25.75
2018-05-23T18:48:53.608Z,25.63
2018-05-23T18:51:22.612Z,25.67
2018-05-23T18:53:51.202Z,25.37
2018-05-23T18:56:19.632Z,25.98
2018-05-23T18:58:48.112Z,25.63
2018-05-23T19:01:16.896Z,25.87
2018-05-23T19:03:45.877Z,25.71
2018-05-23T19:06:14.696Z,25.19
2018-05-23T19:08:43.608Z,25.54
2018-05-23T19:11:12.767Z,25.17
2018-05-23T19:13:41.272Z,24.94
2018-05-23T19:16:10.490Z,24.98
2018-05-23T19:18:39.039Z,24.75
2018-05-23T19:21:07.403Z,24.87
2018-05-23T19:23:36.145Z,24.81
2018-05-23T19:28:50.959Z,24.67
2018-05-23T19:31:19.612Z,24.65
2018-05-23T19:33:48.444Z,24.79
2018-05-23T19:36:16.936Z,24.32
2018-05-23T19:38:45.451Z,24.44
2018-05-23T19:41:13.836Z,24.41
2018-05-23T19:43:42.330Z,24.86
2018-05-23T19:46:10.750Z,24.89
2018-05-23T19:48:39.137Z,24.55
2018-05-23T19:51:07.557Z,25.01
2018-05-23T19:53:36.109Z,24.32
2018-05-23T19:56:04.567Z,24.63
2018-05-23T19:58:32.963Z,24.74
2018-05-23T20:01:02.289Z,24.65
2018-05-23T20:03:31.192Z,24.36
2018-05-23T20:05:59.644Z,24.59
2018-05-23T20:08:28.099Z,24.47
2018-05-23T20:10:56.567Z,24.45
2018-05-23T20:13:25.445Z,24.31
2018-05-23T20:15:53.993Z,24.62
2018-05-23T20:18:22.555Z,24.03
2018-05-23T20:20:51.208Z,23.85
2018-05-23T20:23:20.335Z,24.34
2018-05-23T20:25:48.808Z,24.30
2018-05-23T20:28:17.250Z,24.43
2018-05-23T20:30:45.648Z,24.42
2018-05-23T20:33:14.030Z,24.38
2018-05-23T20:35:43.309Z,24.04
2018-05-23T20:38:11.885Z,23.90
2018-05-23T20:40:40.246Z,24.71
2018-05-23T20:43:08.715Z,23.99
2018-05-23T20:45:37.078Z,24.47
2018-05-23T20:48:05.441Z,23.67
2018-05-23T20:50:33.884Z,23.87
2018-05-23T20:53:02.273Z,24.24
2018-05-23T20:55:30.718Z,23.85
2018-05-23T20:57:59.144Z,23.53
2018-05-23T21:00:27.561Z,23.94
2018-05-23T21:02:55.975Z,24.04
2018-05-23T21:05:24.544Z,24.02
2018-05-23T21:07:52.801Z,23.95
2018-05-23T21:10:21.177Z,23.34
2018-05-23T21:12:49.547Z,23.08
2018-05-23T21:15:17.990Z,23.76
2018-05-23T21:17:46.371Z,23.64
2018-05-23T21:20:14.743Z,23.75
2018-05-23T21:22:43.107Z,22.85
2018-05-23T21:25:11.619Z,23.02
2018-05-23T21:27:39.973Z,23.33
2018-05-23T21:30:08.572Z,23.05
2018-05-23T21:32:37.062Z,23.16
2018-05-23T21:35:05.416Z,23.49
2018-05-23T21:37:33.893Z,23.35
2018-05-23T21:40:02.272Z,22.96
2018-05-23T21:42:30.678Z,23.28
2018-05-23T21:44:59.091Z,22.94
2018-05-23T21:47:27.465Z,23.03
2018-05-23T21:49:55.836Z,22.80
2018-05-23T21:52:24.372Z,22.98
2018-05-23T21:54:52.881Z,22.85
2018-05-23T21:57:21.242Z,22.66
2018-05-23T21:59:49.662Z,22.75
2018-05-23T22:02:18.032Z,22.64
2018-05-23T22:04:46.453Z,22.47
2018-05-23T22:07:14.861Z,22.38
2018-05-23T22:09:43.230Z,22.39
2018-05-23T22:12:11.606Z,22.21
2018-05-23T22:14:39.956Z,22.05
2018-05-23T22:17:08.296Z,21.92
2018-05-23T22:19:36.690Z,22.35
2018-05-23T22:22:05.033Z,21.82
2018-05-23T22:24:33.431Z,21.87
2018-05-23T22:27:01.813Z,22.23
2018-05-23T22:29:30.246Z,21.96
2018-05-23T22:31:58.699Z,21.67
2018-05-23T22:34:27.104Z,22.28
2018-05-23T22:36:55.606Z,22.31
2018-05-23T22:39:23.975Z,22.10
2018-05-23T22:41:52.359Z,22.22
2018-05-23T22:44:20.769Z,22.30
2018-05-23T22:46:49.134Z,21.95
2018-05-23T22:49:17.560Z,22.09
2018-05-23T22:51:45.921Z,22.22
2018-05-23T22:54:14.300Z,22.00
2018-05-23T22:56:42.634Z,22.24
2018-05-23T22:59:11.028Z,22.23
2018-05-23T23:01:39.470Z,22.40
2018-05-23T23:04:07.837Z,22.45
2018-05-23T23:06:36.225Z,22.48
2018-05-23T23:09:04.586Z,22.54
2018-05-23T23:11:32.947Z,22.49
2018-05-23T23:14:01.351Z,22.17
2018-05-23T23:16:29.735Z,22.42
2018-05-23T23:18:58.167Z,22.48
2018-05-23T23:21:26.464Z,22.39
2018-05-23T23:23:54.806Z,22.56
2018-05-23T23:26:23.239Z,22.43
2018-05-23T23:28:51.617Z,22.57
2018-05-23T23:31:19.957Z,22.31
2018-05-23T23:33:48.293Z,22.58
2018-05-23T23:36:16.734Z,22.36
2018-05-23T23:38:45.192Z,21.42
2018-05-23T23:41:13.590Z,21.83
2018-05-23T23:43:41.960Z,22.29
2018-05-23T23:46:10.322Z,22.24
2018-05-23T23:48:38.684Z,22.33
2018-05-23T23:51:07.037Z,22.29
2018-05-23T23:53:35.380Z,22.29
2018-05-23T23:56:03.740Z,22.11
2018-05-23T23:58:32.138Z,22.32
